sensor_id;sensor_type;location;lat;lon;timestamp;P1;durP1;ratioP1;P2;durP2;ratioP2
55216;SDS011;41086;46.736;15.666;2023-08-17T00:01:57;15.20;;;12.07;;
55216;SDS011;41086;46.736;15.666;2023-08-17T00:04:24;15.43;;;13.32;;
55216;SDS011;41086;46.736;15.666;2023-08-17T00:09:17;15.13;;;13.15;;
55216;SDS011;41086;46.736;15.666;2023-08-17T00:11:44;14.13;;;12.63;;
55216;SDS011;41086;46.736;15.666;2023-08-17T00:16:39;14.95;;;13.40;;
55216;SDS011;41086;46.736;15.666;2023-08-17T00:19:05;15.35;;;13.35;;
55216;SDS011;41086;46.736;15.666;2023-08-17T00:21:32;14.75;;;13.23;;
55216;SDS011;41086;46.736;15.666;2023-08-17T00:23:59;16.55;;;13.02;;
55216;SDS011;41086;46.736;15.666;2023-08-17T00:26:26;18.30;;;13.25;;
55216;SDS011;41086;46.736;15.666;2023-08-17T00:28:54;15.85;;;14.25;;
55216;SDS011;41086;46.736;15.666;2023-08-17T00:31:21;16.75;;;13.80;;
55216;SDS011;41086;46.736;15.666;2023-08-17T00:33:48;23.20;;;13.45;;
55216;SDS011;41086;46.736;15.666;2023-08-17T00:36:14;18.85;;;13.50;;
55216;SDS011;41086;46.736;15.666;2023-08-17T00:38:41;15.38;;;12.45;;
55216;SDS011;41086;46.736;15.666;2023-08-17T00:41:08;17.60;;;13.07;;
55216;SDS011;41086;46.736;15.666;2023-08-17T00:43:35;14.45;;;12.82;;
55216;SDS011;41086;46.736;15.666;2023-08-17T00:46:02;17.27;;;14.85;;
55216;SDS011;41086;46.736;15.666;2023-08-17T00:48:29;15.73;;;14.02;;
55216;SDS011;41086;46.736;15.666;2023-08-17T00:50:57;16.83;;;15.02;;
55216;SDS011;41086;46.736;15.666;2023-08-17T00:53:29;17.23;;;14.88;;
55216;SDS011;41086;46.736;15.666;2023-08-17T00:55:58;17.92;;;13.48;;
55216;SDS011;41086;46.736;15.666;2023-08-17T00:58:27;17.42;;;14.48;;
55216;SDS011;41086;46.736;15.666;2023-08-17T01:00:54;16.63;;;14.00;;
55216;SDS011;41086;46.736;15.666;2023-08-17T01:03:22;16.45;;;14.13;;
55216;SDS011;41086;46.736;15.666;2023-08-17T01:05:50;19.55;;;15.82;;
55216;SDS011;41086;46.736;15.666;2023-08-17T01:08:17;22.58;;;15.38;;
55216;SDS011;41086;46.736;15.666;2023-08-17T01:13:21;18.27;;;15.13;;
55216;SDS011;41086;46.736;15.666;2023-08-17T01:15:57;18.25;;;15.05;;
55216;SDS011;41086;46.736;15.666;2023-08-17T01:18:29;22.33;;;14.60;;
55216;SDS011;41086;46.736;15.666;2023-08-17T01:21:00;21.85;;;15.05;;
55216;SDS011;41086;46.736;15.666;2023-08-17T01:23:29;18.25;;;16.17;;
55216;SDS011;41086;46.736;15.666;2023-08-17T01:25:56;20.45;;;16.88;;
55216;SDS011;41086;46.736;15.666;2023-08-17T01:28:24;23.42;;;17.95;;
55216;SDS011;41086;46.736;15.666;2023-08-17T01:33:25;24.55;;;14.73;;
55216;SDS011;41086;46.736;15.666;2023-08-17T01:36:33;16.77;;;14.32;;
55216;SDS011;41086;46.736;15.666;2023-08-17T01:39:05;20.40;;;15.48;;
55216;SDS011;41086;46.736;15.666;2023-08-17T01:41:34;21.00;;;16.13;;
55216;SDS011;41086;46.736;15.666;2023-08-17T01:44:03;27.27;;;16.52;;
55216;SDS011;41086;46.736;15.666;2023-08-17T01:46:31;21.95;;;18.65;;
55216;SDS011;41086;46.736;15.666;2023-08-17T01:48:59;26.90;;;18.77;;
55216;SDS011;41086;46.736;15.666;2023-08-17T01:53:53;26.40;;;17.95;;
55216;SDS011;41086;46.736;15.666;2023-08-17T01:56:19;22.08;;;16.63;;
55216;SDS011;41086;46.736;15.666;2023-08-17T02:01:13;21.20;;;16.73;;
55216;SDS011;41086;46.736;15.666;2023-08-17T02:03:40;23.25;;;19.23;;
55216;SDS011;41086;46.736;15.666;2023-08-17T02:06:06;24.10;;;18.52;;
55216;SDS011;41086;46.736;15.666;2023-08-17T02:08:35;20.15;;;17.63;;
55216;SDS011;41086;46.736;15.666;2023-08-17T02:11:05;20.73;;;17.60;;
55216;SDS011;41086;46.736;15.666;2023-08-17T02:13:32;24.27;;;16.52;;
55216;SDS011;41086;46.736;15.666;2023-08-17T02:16:05;15.98;;;14.27;;
55216;SDS011;41086;46.736;15.666;2023-08-17T02:18:32;19.17;;;15.15;;
55216;SDS011;41086;46.736;15.666;2023-08-17T02:21:01;20.30;;;14.98;;
55216;SDS011;41086;46.736;15.666;2023-08-17T02:23:27;19.67;;;16.38;;
55216;SDS011;41086;46.736;15.666;2023-08-17T02:25:54;19.15;;;14.77;;
55216;SDS011;41086;46.736;15.666;2023-08-17T02:28:21;21.30;;;14.00;;
55216;SDS011;41086;46.736;15.666;2023-08-17T02:30:48;28.73;;;17.92;;
55216;SDS011;41086;46.736;15.666;2023-08-17T02:33:15;21.23;;;18.02;;
55216;SDS011;41086;46.736;15.666;2023-08-17T02:35:42;24.00;;;18.85;;
55216;SDS011;41086;46.736;15.666;2023-08-17T02:40:36;18.23;;;14.50;;
55216;SDS011;41086;46.736;15.666;2023-08-17T02:43:02;19.10;;;14.65;;
55216;SDS011;41086;46.736;15.666;2023-08-17T02:47:56;19.05;;;14.57;;
55216;SDS011;41086;46.736;15.666;2023-08-17T02:50:23;19.40;;;16.40;;
55216;SDS011;41086;46.736;15.666;2023-08-17T02:52:50;20.27;;;15.90;;
55216;SDS011;41086;46.736;15.666;2023-08-17T02:55:17;23.67;;;17.77;;
55216;SDS011;41086;46.736;15.666;2023-08-17T02:57:43;24.05;;;17.58;;
55216;SDS011;41086;46.736;15.666;2023-08-17T03:02:37;19.25;;;16.33;;
55216;SDS011;41086;46.736;15.666;2023-08-17T03:07:31;19.35;;;17.02;;
55216;SDS011;41086;46.736;15.666;2023-08-17T03:09:58;18.92;;;16.00;;
55216;SDS011;41086;46.736;15.666;2023-08-17T03:12:25;23.15;;;17.23;;
55216;SDS011;41086;46.736;15.666;2023-08-17T03:17:18;19.13;;;15.25;;
55216;SDS011;41086;46.736;15.666;2023-08-17T03:19:46;22.45;;;17.13;;
55216;SDS011;41086;46.736;15.666;2023-08-17T03:22:15;20.13;;;17.05;;
55216;SDS011;41086;46.736;15.666;2023-08-17T03:24:41;22.15;;;17.88;;
55216;SDS011;41086;46.736;15.666;2023-08-17T03:29:35;19.80;;;16.15;;
55216;SDS011;41086;46.736;15.666;2023-08-17T03:32:02;21.63;;;16.80;;
55216;SDS011;41086;46.736;15.666;2023-08-17T03:34:29;35.42;;;28.33;;
55216;SDS011;41086;46.736;15.666;2023-08-17T03:36:56;17.92;;;16.02;;
55216;SDS011;41086;46.736;15.666;2023-08-17T03:39:24;19.50;;;16.10;;
55216;SDS011;41086;46.736;15.666;2023-08-17T03:44:19;19.40;;;14.55;;
55216;SDS011;41086;46.736;15.666;2023-08-17T03:46:47;23.33;;;13.85;;
55216;SDS011;41086;46.736;15.666;2023-08-17T03:49:14;18.50;;;14.90;;
55216;SDS011;41086;46.736;15.666;2023-08-17T03:51:41;21.77;;;17.05;;
55216;SDS011;41086;46.736;15.666;2023-08-17T03:54:07;22.67;;;15.38;;
55216;SDS011;41086;46.736;15.666;2023-08-17T03:56:34;19.67;;;15.50;;
55216;SDS011;41086;46.736;15.666;2023-08-17T03:59:01;22.10;;;17.70;;
55216;SDS011;41086;46.736;15.666;2023-08-17T04:01:28;20.48;;;18.27;;
55216;SDS011;41086;46.736;15.666;2023-08-17T04:03:55;22.63;;;17.40;;
55216;SDS011;41086;46.736;15.666;2023-08-17T04:06:22;23.15;;;18.35;;
55216;SDS011;41086;46.736;15.666;2023-08-17T04:08:49;27.35;;;18.33;;
55216;SDS011;41086;46.736;15.666;2023-08-17T04:11:15;25.27;;;19.30;;
55216;SDS011;41086;46.736;15.666;2023-08-17T04:13:42;22.00;;;17.83;;
55216;SDS011;41086;46.736;15.666;2023-08-17T04:16:09;23.50;;;18.08;;
55216;SDS011;41086;46.736;15.666;2023-08-17T04:18:37;22.63;;;17.63;;
55216;SDS011;41086;46.736;15.666;2023-08-17T04:21:04;24.13;;;19.55;;
55216;SDS011;41086;46.736;15.666;2023-08-17T04:25:57;25.05;;;18.55;;
55216;SDS011;41086;46.736;15.666;2023-08-17T04:28:27;22.77;;;18.02;;
55216;SDS011;41086;46.736;15.666;2023-08-17T04:30:53;27.20;;;17.88;;
55216;SDS011;41086;46.736;15.666;2023-08-17T04:33:20;26.02;;;19.38;;
55216;SDS011;41086;46.736;15.666;2023-08-17T04:35:47;21.83;;;17.70;;
55216;SDS011;41086;46.736;15.666;2023-08-17T04:38:15;22.50;;;17.95;;
55216;SDS011;41086;46.736;15.666;2023-08-17T04:40:42;28.33;;;18.90;;
55216;SDS011;41086;46.736;15.666;2023-08-17T04:45:37;29.85;;;18.67;;
55216;SDS011;41086;46.736;15.666;2023-08-17T04:48:05;21.48;;;19.05;;
55216;SDS011;41086;46.736;15.666;2023-08-17T04:50:32;31.92;;;21.50;;
55216;SDS011;41086;46.736;15.666;2023-08-17T04:52:59;29.42;;;20.33;;
55216;SDS011;41086;46.736;15.666;2023-08-17T04:55:26;25.23;;;19.60;;
55216;SDS011;41086;46.736;15.666;2023-08-17T04:57:54;26.50;;;20.27;;
55216;SDS011;41086;46.736;15.666;2023-08-17T05:00:21;27.67;;;21.35;;
55216;SDS011;41086;46.736;15.666;2023-08-17T05:02:55;26.73;;;20.98;;
55216;SDS011;41086;46.736;15.666;2023-08-17T05:05:24;26.90;;;19.15;;
55216;SDS011;41086;46.736;15.666;2023-08-17T05:07:52;23.25;;;18.17;;
55216;SDS011;41086;46.736;15.666;2023-08-17T05:10:19;26.13;;;19.23;;
55216;SDS011;41086;46.736;15.666;2023-08-17T05:15:13;27.45;;;21.05;;
55216;SDS011;41086;46.736;15.666;2023-08-17T05:17:40;29.77;;;23.63;;
55216;SDS011;41086;46.736;15.666;2023-08-17T05:20:09;26.73;;;20.17;;
55216;SDS011;41086;46.736;15.666;2023-08-17T05:22:39;23.65;;;18.40;;
55216;SDS011;41086;46.736;15.666;2023-08-17T05:25:06;24.52;;;18.58;;
55216;SDS011;41086;46.736;15.666;2023-08-17T05:27:35;24.67;;;18.73;;
55216;SDS011;41086;46.736;15.666;2023-08-17T05:30:02;21.58;;;17.73;;
55216;SDS011;41086;46.736;15.666;2023-08-17T05:32:29;24.67;;;19.40;;
55216;SDS011;41086;46.736;15.666;2023-08-17T05:34:56;24.80;;;17.58;;
55216;SDS011;41086;46.736;15.666;2023-08-17T05:37:24;22.88;;;17.88;;
55216;SDS011;41086;46.736;15.666;2023-08-17T05:39:51;19.42;;;15.90;;
55216;SDS011;41086;46.736;15.666;2023-08-17T05:42:19;18.42;;;14.65;;
55216;SDS011;41086;46.736;15.666;2023-08-17T05:44:46;19.25;;;17.08;;
55216;SDS011;41086;46.736;15.666;2023-08-17T05:47:13;23.75;;;17.83;;
55216;SDS011;41086;46.736;15.666;2023-08-17T05:49:44;18.30;;;14.43;;
55216;SDS011;41086;46.736;15.666;2023-08-17T05:52:11;17.13;;;13.90;;
55216;SDS011;41086;46.736;15.666;2023-08-17T05:54:38;22.27;;;15.52;;
55216;SDS011;41086;46.736;15.666;2023-08-17T05:57:05;21.80;;;16.65;;
55216;SDS011;41086;46.736;15.666;2023-08-17T05:59:31;18.55;;;15.85;;
55216;SDS011;41086;46.736;15.666;2023-08-17T06:01:58;23.10;;;16.52;;
55216;SDS011;41086;46.736;15.666;2023-08-17T06:06:52;19.48;;;16.58;;
55216;SDS011;41086;46.736;15.666;2023-08-17T06:11:45;17.17;;;15.40;;
55216;SDS011;41086;46.736;15.666;2023-08-17T06:14:12;20.20;;;14.05;;
55216;SDS011;41086;46.736;15.666;2023-08-17T06:16:39;14.82;;;13.30;;
55216;SDS011;41086;46.736;15.666;2023-08-17T06:21:33;17.63;;;13.32;;
55216;SDS011;41086;46.736;15.666;2023-08-17T06:23:59;17.40;;;13.52;;
55216;SDS011;41086;46.736;15.666;2023-08-17T06:28:53;16.10;;;13.18;;
55216;SDS011;41086;46.736;15.666;2023-08-17T06:31:20;13.98;;;11.98;;
55216;SDS011;41086;46.736;15.666;2023-08-17T06:36:14;15.52;;;12.40;;
55216;SDS011;41086;46.736;15.666;2023-08-17T06:38:42;20.80;;;12.30;;
55216;SDS011;41086;46.736;15.666;2023-08-17T06:43:36;16.52;;;12.20;;
55216;SDS011;41086;46.736;15.666;2023-08-17T06:48:30;14.63;;;12.00;;
55216;SDS011;41086;46.736;15.666;2023-08-17T06:50:58;17.30;;;11.90;;
55216;SDS011;41086;46.736;15.666;2023-08-17T06:55:51;13.93;;;11.02;;
55216;SDS011;41086;46.736;15.666;2023-08-17T07:00:44;10.90;;;9.55;;
55216;SDS011;41086;46.736;15.666;2023-08-17T07:03:11;12.32;;;10.55;;
55216;SDS011;41086;46.736;15.666;2023-08-17T07:08:05;11.85;;;9.45;;
55216;SDS011;41086;46.736;15.666;2023-08-17T07:10:33;10.38;;;9.25;;
55216;SDS011;41086;46.736;15.666;2023-08-17T07:13:00;15.30;;;10.35;;
55216;SDS011;41086;46.736;15.666;2023-08-17T07:15:30;10.38;;;9.27;;
55216;SDS011;41086;46.736;15.666;2023-08-17T07:17:57;13.65;;;10.50;;
55216;SDS011;41086;46.736;15.666;2023-08-17T07:22:50;10.45;;;9.27;;
55216;SDS011;41086;46.736;15.666;2023-08-17T07:25:17;12.13;;;10.77;;
55216;SDS011;41086;46.736;15.666;2023-08-17T07:30:11;21.48;;;9.63;;
55216;SDS011;41086;46.736;15.666;2023-08-17T07:32:39;16.02;;;10.25;;
55216;SDS011;41086;46.736;15.666;2023-08-17T07:35:06;12.73;;;10.07;;
55216;SDS011;41086;46.736;15.666;2023-08-17T07:37:33;14.13;;;10.10;;
55216;SDS011;41086;46.736;15.666;2023-08-17T07:40:02;11.85;;;10.35;;
55216;SDS011;41086;46.736;15.666;2023-08-17T07:42:32;12.10;;;9.57;;
55216;SDS011;41086;46.736;15.666;2023-08-17T07:44:59;13.77;;;10.55;;
55216;SDS011;41086;46.736;15.666;2023-08-17T07:47:26;10.82;;;8.20;;
55216;SDS011;41086;46.736;15.666;2023-08-17T07:49:53;12.15;;;9.52;;
55216;SDS011;41086;46.736;15.666;2023-08-17T07:52:20;10.80;;;9.38;;
55216;SDS011;41086;46.736;15.666;2023-08-17T07:54:47;11.55;;;10.18;;
55216;SDS011;41086;46.736;15.666;2023-08-17T07:57:14;18.83;;;9.93;;
55216;SDS011;41086;46.736;15.666;2023-08-17T07:59:40;11.73;;;8.98;;
55216;SDS011;41086;46.736;15.666;2023-08-17T08:02:07;11.43;;;8.48;;
55216;SDS011;41086;46.736;15.666;2023-08-17T08:04:34;8.43;;;7.60;;
55216;SDS011;41086;46.736;15.666;2023-08-17T08:07:01;9.13;;;7.60;;
55216;SDS011;41086;46.736;15.666;2023-08-17T08:09:28;16.10;;;7.28;;
55216;SDS011;41086;46.736;15.666;2023-08-17T08:11:55;8.13;;;7.28;;
55216;SDS011;41086;46.736;15.666;2023-08-17T08:14:21;9.05;;;7.05;;
55216;SDS011;41086;46.736;15.666;2023-08-17T08:16:48;10.50;;;7.55;;
55216;SDS011;41086;46.736;15.666;2023-08-17T08:19:15;37.75;;;9.68;;
55216;SDS011;41086;46.736;15.666;2023-08-17T08:21:42;9.70;;;6.68;;
55216;SDS011;41086;46.736;15.666;2023-08-17T08:24:09;7.47;;;6.00;;
55216;SDS011;41086;46.736;15.666;2023-08-17T08:26:52;8.98;;;6.63;;
55216;SDS011;41086;46.736;15.666;2023-08-17T08:29:21;9.15;;;6.95;;
55216;SDS011;41086;46.736;15.666;2023-08-17T08:31:48;6.97;;;6.22;;
55216;SDS011;41086;46.736;15.666;2023-08-17T08:34:14;13.23;;;7.13;;
55216;SDS011;41086;46.736;15.666;2023-08-17T08:36:41;8.27;;;5.93;;
55216;SDS011;41086;46.736;15.666;2023-08-17T08:39:08;9.60;;;6.40;;
55216;SDS011;41086;46.736;15.666;2023-08-17T08:41:37;8.63;;;6.40;;
55216;SDS011;41086;46.736;15.666;2023-08-17T08:44:04;11.27;;;9.07;;
55216;SDS011;41086;46.736;15.666;2023-08-17T08:46:31;9.32;;;8.30;;
55216;SDS011;41086;46.736;15.666;2023-08-17T08:49:00;11.13;;;8.80;;
55216;SDS011;41086;46.736;15.666;2023-08-17T08:51:29;9.77;;;8.50;;
55216;SDS011;41086;46.736;15.666;2023-08-17T08:54:00;22.25;;;8.93;;
55216;SDS011;41086;46.736;15.666;2023-08-17T08:56:31;10.77;;;7.63;;
55216;SDS011;41086;46.736;15.666;2023-08-17T08:59:01;16.77;;;9.02;;
55216;SDS011;41086;46.736;15.666;2023-08-17T09:01:30;9.02;;;7.57;;
55216;SDS011;41086;46.736;15.666;2023-08-17T09:03:58;10.77;;;7.68;;
55216;SDS011;41086;46.736;15.666;2023-08-17T09:06:27;10.32;;;7.80;;
55216;SDS011;41086;46.736;15.666;2023-08-17T09:08:59;8.55;;;7.65;;
55216;SDS011;41086;46.736;15.666;2023-08-17T09:11:28;12.95;;;8.85;;
55216;SDS011;41086;46.736;15.666;2023-08-17T09:13:56;8.10;;;7.03;;
55216;SDS011;41086;46.736;15.666;2023-08-17T09:16:23;9.73;;;6.95;;
55216;SDS011;41086;46.736;15.666;2023-08-17T09:18:54;8.55;;;6.00;;
55216;SDS011;41086;46.736;15.666;2023-08-17T09:21:21;11.07;;;7.03;;
55216;SDS011;41086;46.736;15.666;2023-08-17T09:23:52;9.70;;;6.55;;
55216;SDS011;41086;46.736;15.666;2023-08-17T09:26:23;9.48;;;6.40;;
55216;SDS011;41086;46.736;15.666;2023-08-17T09:28:51;8.25;;;6.40;;
55216;SDS011;41086;46.736;15.666;2023-08-17T09:31:21;8.98;;;6.50;;
55216;SDS011;41086;46.736;15.666;2023-08-17T09:33:48;8.10;;;7.30;;
55216;SDS011;41086;46.736;15.666;2023-08-17T09:36:23;7.93;;;7.13;;
55216;SDS011;41086;46.736;15.666;2023-08-17T09:38:52;7.40;;;6.40;;
55216;SDS011;41086;46.736;15.666;2023-08-17T09:41:19;8.10;;;6.55;;
55216;SDS011;41086;46.736;15.666;2023-08-17T09:43:46;8.60;;;5.80;;
55216;SDS011;41086;46.736;15.666;2023-08-17T09:46:14;7.30;;;6.45;;
55216;SDS011;41086;46.736;15.666;2023-08-17T09:48:43;10.23;;;7.80;;
55216;SDS011;41086;46.736;15.666;2023-08-17T09:51:14;9.73;;;6.63;;
55216;SDS011;41086;46.736;15.666;2023-08-17T09:53:42;12.05;;;6.72;;
55216;SDS011;41086;46.736;15.666;2023-08-17T09:56:09;8.15;;;6.57;;
55216;SDS011;41086;46.736;15.666;2023-08-17T09:58:42;7.75;;;6.20;;
55216;SDS011;41086;46.736;15.666;2023-08-17T10:01:09;7.15;;;6.30;;
55216;SDS011;41086;46.736;15.666;2023-08-17T10:03:39;7.40;;;6.55;;
55216;SDS011;41086;46.736;15.666;2023-08-17T10:06:10;21.23;;;7.07;;
55216;SDS011;41086;46.736;15.666;2023-08-17T10:08:41;6.00;;;5.32;;
55216;SDS011;41086;46.736;15.666;2023-08-17T10:11:12;8.75;;;5.82;;
55216;SDS011;41086;46.736;15.666;2023-08-17T10:13:51;6.78;;;5.75;;
55216;SDS011;41086;46.736;15.666;2023-08-17T10:16:23;6.55;;;5.60;;
55216;SDS011;41086;46.736;15.666;2023-08-17T10:19:09;6.18;;;5.30;;
55216;SDS011;41086;46.736;15.666;2023-08-17T10:21:46;6.03;;;4.95;;
55216;SDS011;41086;46.736;15.666;2023-08-17T10:24:19;8.93;;;5.60;;
55216;SDS011;41086;46.736;15.666;2023-08-17T10:26:46;9.85;;;5.68;;
55216;SDS011;41086;46.736;15.666;2023-08-17T10:29:20;9.40;;;5.82;;
55216;SDS011;41086;46.736;15.666;2023-08-17T10:31:52;6.93;;;5.93;;
55216;SDS011;41086;46.736;15.666;2023-08-17T10:34:22;10.35;;;6.45;;
55216;SDS011;41086;46.736;15.666;2023-08-17T10:36:49;7.97;;;5.28;;
55216;SDS011;41086;46.736;15.666;2023-08-17T10:39:17;7.57;;;4.88;;
55216;SDS011;41086;46.736;15.666;2023-08-17T10:41:48;7.10;;;5.18;;
55216;SDS011;41086;46.736;15.666;2023-08-17T10:44:17;8.65;;;5.47;;
55216;SDS011;41086;46.736;15.666;2023-08-17T10:46:44;9.85;;;5.30;;
55216;SDS011;41086;46.736;15.666;2023-08-17T10:49:25;6.75;;;5.15;;
55216;SDS011;41086;46.736;15.666;2023-08-17T10:52:02;6.82;;;4.78;;
55216;SDS011;41086;46.736;15.666;2023-08-17T10:54:37;10.00;;;5.32;;
55216;SDS011;41086;46.736;15.666;2023-08-17T11:00:13;6.50;;;5.45;;
55216;SDS011;41086;46.736;15.666;2023-08-17T11:02:53;8.63;;;5.03;;
55216;SDS011;41086;46.736;15.666;2023-08-17T11:05:44;6.05;;;4.68;;
55216;SDS011;41086;46.736;15.666;2023-08-17T11:08:33;5.68;;;4.97;;
55216;SDS011;41086;46.736;15.666;2023-08-17T11:11:12;6.35;;;5.65;;
55216;SDS011;41086;46.736;15.666;2023-08-17T11:13:40;6.78;;;5.05;;
55216;SDS011;41086;46.736;15.666;2023-08-17T11:16:10;6.80;;;5.38;;
55216;SDS011;41086;46.736;15.666;2023-08-17T11:18:43;6.60;;;5.10;;
55216;SDS011;41086;46.736;15.666;2023-08-17T11:21:21;7.00;;;4.93;;
55216;SDS011;41086;46.736;15.666;2023-08-17T11:23:48;7.50;;;5.03;;
55216;SDS011;41086;46.736;15.666;2023-08-17T11:26:18;7.47;;;5.10;;
55216;SDS011;41086;46.736;15.666;2023-08-17T11:28:45;207.73;;;14.85;;
55216;SDS011;41086;46.736;15.666;2023-08-17T11:31:13;9.60;;;5.35;;
55216;SDS011;41086;46.736;15.666;2023-08-17T11:33:44;11.00;;;5.05;;
55216;SDS011;41086;46.736;15.666;2023-08-17T11:36:13;8.65;;;5.50;;
55216;SDS011;41086;46.736;15.666;2023-08-17T11:38:41;5.93;;;5.25;;
55216;SDS011;41086;46.736;15.666;2023-08-17T11:41:11;7.88;;;4.63;;
55216;SDS011;41086;46.736;15.666;2023-08-17T11:43:42;10.27;;;5.93;;
55216;SDS011;41086;46.736;15.666;2023-08-17T11:46:11;9.27;;;5.15;;
55216;SDS011;41086;46.736;15.666;2023-08-17T11:48:38;9.23;;;5.28;;
55216;SDS011;41086;46.736;15.666;2023-08-17T11:51:05;6.13;;;5.38;;
55216;SDS011;41086;46.736;15.666;2023-08-17T11:53:33;6.03;;;4.90;;
55216;SDS011;41086;46.736;15.666;2023-08-17T11:56:01;5.70;;;4.80;;
55216;SDS011;41086;46.736;15.666;2023-08-17T11:58:41;5.10;;;4.40;;
55216;SDS011;41086;46.736;15.666;2023-08-17T12:01:10;9.00;;;4.82;;
55216;SDS011;41086;46.736;15.666;2023-08-17T12:03:38;6.43;;;4.68;;
55216;SDS011;41086;46.736;15.666;2023-08-17T12:06:09;7.38;;;5.25;;
55216;SDS011;41086;46.736;15.666;2023-08-17T12:08:36;7.72;;;4.80;;
55216;SDS011;41086;46.736;15.666;2023-08-17T12:11:03;5.78;;;4.88;;
55216;SDS011;41086;46.736;15.666;2023-08-17T12:13:32;5.10;;;4.55;;
55216;SDS011;41086;46.736;15.666;2023-08-17T12:16:01;7.10;;;5.25;;
55216;SDS011;41086;46.736;15.666;2023-08-17T12:18:31;10.98;;;5.13;;
55216;SDS011;41086;46.736;15.666;2023-08-17T12:20:59;7.28;;;4.50;;
55216;SDS011;41086;46.736;15.666;2023-08-17T12:23:27;7.93;;;5.43;;
55216;SDS011;41086;46.736;15.666;2023-08-17T12:25:55;7.72;;;4.45;;
55216;SDS011;41086;46.736;15.666;2023-08-17T12:28:23;6.28;;;4.88;;
55216;SDS011;41086;46.736;15.666;2023-08-17T12:31:00;6.93;;;4.43;;
55216;SDS011;41086;46.736;15.666;2023-08-17T12:33:29;7.15;;;4.78;;
55216;SDS011;41086;46.736;15.666;2023-08-17T12:35:56;5.63;;;4.70;;
55216;SDS011;41086;46.736;15.666;2023-08-17T12:38:24;7.50;;;4.72;;
55216;SDS011;41086;46.736;15.666;2023-08-17T12:40:52;6.93;;;4.65;;
55216;SDS011;41086;46.736;15.666;2023-08-17T12:43:20;5.03;;;4.20;;
55216;SDS011;41086;46.736;15.666;2023-08-17T12:45:47;6.00;;;4.35;;
55216;SDS011;41086;46.736;15.666;2023-08-17T12:48:14;4.70;;;4.22;;
55216;SDS011;41086;46.736;15.666;2023-08-17T12:50:41;9.70;;;5.82;;
55216;SDS011;41086;46.736;15.666;2023-08-17T12:53:12;5.90;;;4.75;;
55216;SDS011;41086;46.736;15.666;2023-08-17T12:55:39;6.30;;;4.68;;
55216;SDS011;41086;46.736;15.666;2023-08-17T12:58:09;4.63;;;3.72;;
55216;SDS011;41086;46.736;15.666;2023-08-17T13:00:36;5.15;;;4.35;;
55216;SDS011;41086;46.736;15.666;2023-08-17T13:03:03;6.78;;;4.10;;
55216;SDS011;41086;46.736;15.666;2023-08-17T13:05:32;7.03;;;4.38;;
55216;SDS011;41086;46.736;15.666;2023-08-17T13:07:59;6.18;;;4.25;;
55216;SDS011;41086;46.736;15.666;2023-08-17T13:10:27;24.30;;;5.28;;
55216;SDS011;41086;46.736;15.666;2023-08-17T13:12:54;4.82;;;4.10;;
55216;SDS011;41086;46.736;15.666;2023-08-17T13:15:23;4.82;;;3.53;;
55216;SDS011;41086;46.736;15.666;2023-08-17T13:17:49;4.95;;;3.22;;
55216;SDS011;41086;46.736;15.666;2023-08-17T13:20:17;5.05;;;3.78;;
55216;SDS011;41086;46.736;15.666;2023-08-17T13:22:43;4.38;;;3.70;;
55216;SDS011;41086;46.736;15.666;2023-08-17T13:25:10;7.10;;;3.25;;
55216;SDS011;41086;46.736;15.666;2023-08-17T13:27:38;5.40;;;3.15;;
55216;SDS011;41086;46.736;15.666;2023-08-17T13:30:04;5.55;;;3.00;;
55216;SDS011;41086;46.736;15.666;2023-08-17T13:32:32;6.50;;;3.50;;
55216;SDS011;41086;46.736;15.666;2023-08-17T13:35:00;5.13;;;3.30;;
55216;SDS011;41086;46.736;15.666;2023-08-17T13:37:28;4.97;;;3.20;;
55216;SDS011;41086;46.736;15.666;2023-08-17T13:39:55;6.93;;;3.00;;
55216;SDS011;41086;46.736;15.666;2023-08-17T13:42:22;5.30;;;3.10;;
55216;SDS011;41086;46.736;15.666;2023-08-17T13:44:49;4.85;;;3.22;;
55216;SDS011;41086;46.736;15.666;2023-08-17T13:47:16;3.95;;;2.70;;
55216;SDS011;41086;46.736;15.666;2023-08-17T13:49:43;5.95;;;3.08;;
55216;SDS011;41086;46.736;15.666;2023-08-17T13:52:10;5.75;;;3.05;;
55216;SDS011;41086;46.736;15.666;2023-08-17T13:54:37;3.92;;;3.03;;
55216;SDS011;41086;46.736;15.666;2023-08-17T13:57:04;10.35;;;3.45;;
55216;SDS011;41086;46.736;15.666;2023-08-17T13:59:31;4.20;;;3.28;;
55216;SDS011;41086;46.736;15.666;2023-08-17T14:01:57;6.60;;;3.50;;
55216;SDS011;41086;46.736;15.666;2023-08-17T14:04:24;6.43;;;3.10;;
55216;SDS011;41086;46.736;15.666;2023-08-17T14:06:51;6.35;;;3.40;;
55216;SDS011;41086;46.736;15.666;2023-08-17T14:09:19;5.22;;;3.17;;
55216;SDS011;41086;46.736;15.666;2023-08-17T14:11:46;3.60;;;2.88;;
55216;SDS011;41086;46.736;15.666;2023-08-17T14:14:13;8.52;;;3.40;;
55216;SDS011;41086;46.736;15.666;2023-08-17T14:16:40;4.10;;;2.78;;
55216;SDS011;41086;46.736;15.666;2023-08-17T14:19:06;3.95;;;2.65;;
55216;SDS011;41086;46.736;15.666;2023-08-17T14:21:33;41.53;;;34.22;;
55216;SDS011;41086;46.736;15.666;2023-08-17T14:24:00;5.68;;;4.00;;
55216;SDS011;41086;46.736;15.666;2023-08-17T14:26:27;4.80;;;3.00;;
55216;SDS011;41086;46.736;15.666;2023-08-17T14:28:55;6.97;;;3.53;;
55216;SDS011;41086;46.736;15.666;2023-08-17T14:31:22;3.50;;;3.03;;
55216;SDS011;41086;46.736;15.666;2023-08-17T14:33:49;5.53;;;2.80;;
55216;SDS011;41086;46.736;15.666;2023-08-17T14:36:16;4.88;;;3.25;;
55216;SDS011;41086;46.736;15.666;2023-08-17T14:38:46;3.65;;;3.03;;
55216;SDS011;41086;46.736;15.666;2023-08-17T14:41:13;6.40;;;3.40;;
55216;SDS011;41086;46.736;15.666;2023-08-17T14:43:40;7.47;;;3.35;;
55216;SDS011;41086;46.736;15.666;2023-08-17T14:46:07;7.75;;;3.50;;
55216;SDS011;41086;46.736;15.666;2023-08-17T14:48:40;5.88;;;3.30;;
55216;SDS011;41086;46.736;15.666;2023-08-17T14:51:08;3.95;;;3.08;;
55216;SDS011;41086;46.736;15.666;2023-08-17T14:53:35;3.70;;;2.97;;
55216;SDS011;41086;46.736;15.666;2023-08-17T14:56:05;5.20;;;3.45;;
55216;SDS011;41086;46.736;15.666;2023-08-17T14:58:32;6.00;;;3.22;;
55216;SDS011;41086;46.736;15.666;2023-08-17T15:00:59;5.20;;;3.30;;
55216;SDS011;41086;46.736;15.666;2023-08-17T15:03:27;3.33;;;2.83;;
55216;SDS011;41086;46.736;15.666;2023-08-17T15:05:54;4.38;;;3.20;;
55216;SDS011;41086;46.736;15.666;2023-08-17T15:08:21;5.72;;;2.60;;
55216;SDS011;41086;46.736;15.666;2023-08-17T15:10:48;3.03;;;2.55;;
55216;SDS011;41086;46.736;15.666;2023-08-17T15:13:15;4.82;;;3.20;;
55216;SDS011;41086;46.736;15.666;2023-08-17T15:15:42;4.00;;;2.88;;
55216;SDS011;41086;46.736;15.666;2023-08-17T15:18:12;5.80;;;3.20;;
55216;SDS011;41086;46.736;15.666;2023-08-17T15:20:39;4.68;;;3.10;;
55216;SDS011;41086;46.736;15.666;2023-08-17T15:23:06;5.45;;;3.00;;
55216;SDS011;41086;46.736;15.666;2023-08-17T15:25:33;6.95;;;3.10;;
55216;SDS011;41086;46.736;15.666;2023-08-17T15:28:00;4.55;;;3.10;;
55216;SDS011;41086;46.736;15.666;2023-08-17T15:30:27;5.53;;;3.10;;
55216;SDS011;41086;46.736;15.666;2023-08-17T15:32:53;5.93;;;3.15;;
55216;SDS011;41086;46.736;15.666;2023-08-17T15:35:21;5.50;;;3.47;;
55216;SDS011;41086;46.736;15.666;2023-08-17T15:37:48;3.83;;;3.10;;
55216;SDS011;41086;46.736;15.666;2023-08-17T15:40:15;5.75;;;3.03;;